Time;durP1;ratioP1;P1;durP2;ratioP2;P2;SDS_P1;SDS_P2;PMS_P1;PMS_P2;Temp;Humidity;BMP_temperature;BMP_pressure;BME280_temperature;BME280_humidity;BME280_pressure;Samples;Min_cycle;Max_cycle;Signal;HPM_P1;HPM_P2
2022/04/04 00:02:07;;;;;;;;;8.50;8.25;;;;;9.01;43.05;101873.59;5058678;28;45480;-70
2022/04/04 00:04:33;;;;;;;;;10.50;10.00;;;;;8.88;42.93;101854.13;5047618;28;45634;-70
2022/04/04 00:07:02;;;;;;;;;8.75;8.00;;;;;8.91;43.69;101862.03;5038132;28;45509;-70
2022/04/04 00:09:29;;;;;;;;;10.75;10.75;;;;;8.94;43.99;101876.91;5054476;28;45318;-69
2022/04/04 00:11:55;;;;;;;;;12.25;10.25;;;;;8.92;44.06;101870.75;5058356;28;45291;-71
2022/04/04 00:14:24;;;;;;;;;11.75;10.75;;;;;8.86;43.55;101868.88;5043899;28;45568;-70
2022/04/04 00:16:50;;;;;;;;;11.25;11.25;;;;;8.91;44.04;101874.22;5036391;28;47386;-70
2022/04/04 00:19:16;;;;;;;;;12.50;12.00;;;;;8.90;44.37;101867.25;5037708;28;45520;-70
2022/04/04 00:21:42;;;;;;;;;13.75;13.25;;;;;8.59;44.14;101823.69;5037754;28;45512;-70
2022/04/04 00:24:08;;;;;;;;;13.50;12.50;;;;;8.90;44.37;101886.41;5038143;28;45272;-68
2022/04/04 00:26:34;;;;;;;;;16.50;14.00;;;;;8.91;44.65;101874.22;5036165;28;46693;-68
2022/04/04 00:29:00;;;;;;;;;17.00;16.00;;;;;8.79;44.90;101853.88;5037755;28;45264;-69
2022/04/04 00:31:26;;;;;;;;;14.50;13.50;;;;;8.75;44.38;101843.28;5036453;28;45387;-69
2022/04/04 00:33:52;;;;;;;;;20.00;17.75;;;;;8.85;44.83;101864.50;5037752;28;45490;-70
2022/04/04 00:36:18;;;;;;;;;15.00;13.50;;;;;8.78;45.17;101867.78;5037407;28;47211;-70
2022/04/04 00:38:44;;;;;;;;;19.75;16.75;;;;;8.77;44.63;101863.38;5037233;28;45437;-70
2022/04/04 00:41:11;;;;;;;;;19.25;14.00;;;;;8.69;45.26;101863.19;5036141;28;45343;-69
2022/04/04 00:43:37;;;;;;;;;16.00;15.50;;;;;8.64;45.04;101861.31;5037844;28;45908;-69
2022/04/04 00:46:03;;;;;;;;;16.25;14.00;;;;;8.65;45.22;101857.84;5034563;28;48322;-69
2022/04/04 00:48:29;;;;;;;;;16.50;15.75;;;;;8.66;44.95;101864.81;5037242;28;45531;-69
2022/04/04 00:50:55;;;;;;;;;13.25;13.00;;;;;8.49;45.48;101838.22;5038119;28;45488;-70
2022/04/04 00:53:20;;;;;;;;;14.25;14.25;;;;;8.47;45.35;101827.75;5038592;28;45534;-70
2022/04/04 00:55:50;;;;;;;;;10.00;10.00;;;;;8.48;45.50;101831.25;5037281;28;46252;-70
2022/04/04 00:58:19;;;;;;;;;16.25;14.50;;;;;8.61;45.38;101855.97;5053438;28;45547;-70
2022/04/04 01:00:50;;;;;;;;;12.25;12.25;;;;;8.43;45.77;101833.72;5058546;28;45483;-69
2022/04/04 01:03:16;;;;;;;;;16.50;12.00;;;;;7.99;45.25;101765.44;5059547;28;45547;-70
2022/04/04 01:05:44;;;;;;;;;15.50;13.00;;;;;8.45;45.46;101850.31;5060211;28;46472;-70
2022/04/04 01:08:16;;;;;;;;;12.75;11.00;;;;;8.44;46.12;101852.88;5060147;28;45439;-70
2022/04/04 01:10:43;;;;;;;;;12.25;12.25;;;;;8.41;45.72;101848.47;5059487;28;45509;-68
2022/04/04 01:13:16;;;;;;;;;13.25;13.25;;;;;8.35;45.31;101852.59;5061740;28;45383;-71
2022/04/04 01:15:42;;;;;;;;;12.75;12.75;;;;;8.32;46.46;101847.28;5060566;28;45418;-70
2022/04/04 01:18:09;;;;;;;;;13.75;13.50;;;;;8.12;46.24;101816.28;5060832;28;45434;-69
2022/04/04 01:20:38;;;;;;;;;15.50;13.25;;;;;8.31;45.94;101846.41;5058942;28;45385;-69
2022/04/04 01:23:08;;;;;;;;;13.25;11.50;;;;;8.34;45.59;101846.47;5057240;28;45406;-69
2022/04/04 01:25:37;;;;;;;;;12.00;10.00;;;;;8.37;44.99;101846.56;5040200;28;45516;-68
2022/04/04 01:28:04;;;;;;;;;9.50;8.00;;;;;8.06;44.49;101795.22;5038048;28;45454;-69
2022/04/04 01:30:32;;;;;;;;;10.25;9.00;;;;;8.13;44.51;101796.28;5038150;28;45416;-70
2022/04/04 01:32:58;;;;;;;;;7.25;6.75;;;;;8.47;43.95;101842.53;5039696;28;45382;-70
2022/04/04 01:35:24;;;;;;;;;7.25;6.50;;;;;8.38;44.05;101819.63;5039600;28;46130;-70
2022/04/04 01:37:49;;;;;;;;;7.00;7.00;;;;;8.41;43.64;101819.75;5056987;28;45470;-70
2022/04/04 01:40:16;;;;;;;;;8.75;7.25;;;;;8.56;44.07;101841.91;5051312;28;45468;-70
2022/04/04 01:42:47;;;;;;;;;9.25;7.75;;;;;8.56;43.10;101834.94;5037042;28;45387;-70
2022/04/04 01:45:12;;;;;;;;;4.75;4.50;;;;;8.58;43.61;101835.00;5036538;28;46215;-70
2022/04/04 01:47:38;;;;;;;;;6.50;6.50;;;;;8.55;43.00;101825.34;5036577;28;45204;-70
2022/04/04 01:50:04;;;;;;;;;6.50;6.00;;;;;8.54;43.39;101813.13;5036368;28;45479;-69
2022/04/04 01:52:30;;;;;;;;;7.50;6.50;;;;;8.58;43.09;101820.22;5036983;28;45347;-69
2022/04/04 01:54:55;;;;;;;;;8.50;7.50;;;;;8.52;43.04;101808.72;5035092;28;46407;-69
2022/04/04 01:57:21;;;;;;;;;6.00;5.50;;;;;8.61;42.92;101824.63;5036384;28;45446;-69
2022/04/04 01:59:47;;;;;;;;;8.50;8.50;;;;;8.52;43.16;101806.09;5036593;28;45268;-70
2022/04/04 02:02:12;;;;;;;;;6.00;5.50;;;;;8.56;43.62;101816.66;5052828;28;45472;-70
2022/04/04 02:04:38;;;;;;;;;7.25;6.75;;;;;8.54;43.63;101823.56;5056589;28;45535;-70
2022/04/04 02:07:05;;;;;;;;;7.25;6.25;;;;;8.39;43.57;101800.50;5056355;28;45363;-71
2022/04/04 02:09:32;;;;;;;;;6.50;6.50;;;;;8.39;43.58;101799.63;5056688;28;45381;-70
2022/04/04 02:11:58;;;;;;;;;8.75;7.75;;;;;8.46;43.56;101807.69;5054400;28;45548;-72
2022/04/04 02:14:24;;;;;;;;;8.50;7.25;;;;;8.39;43.70;101802.25;5055843;28;46332;-70
2022/04/04 02:16:55;;;;;;;;;6.50;6.50;;;;;8.37;43.83;101809.13;5056023;28;45457;-70
2022/04/04 02:19:21;;;;;;;;;8.00;8.00;;;;;8.34;44.55;101809.06;5054979;28;45389;-69
2022/04/04 02:21:47;;;;;;;;;8.00;8.00;;;;;8.32;44.05;101802.91;5056024;28;46369;-69
2022/04/04 02:24:12;;;;;;;;;9.00;9.00;;;;;8.22;44.16;101786.09;5056493;28;45736;-69
2022/04/04 02:26:38;;;;;;;;;8.00;8.00;;;;;8.28;43.98;101801.91;5056236;28;45375;-69
2022/04/04 02:29:04;;;;;;;;;9.75;8.00;;;;;8.28;44.05;101799.31;5054549;28;45427;-69
2022/04/04 02:31:31;;;;;;;;;10.25;8.00;;;;;8.24;43.75;101793.13;5053342;28;45513;-70
2022/04/04 02:33:57;;;;;;;;;7.00;6.75;;;;;8.21;44.18;101792.16;5056267;28;46520;-69
2022/04/04 02:36:22;;;;;;;;;9.00;8.75;;;;;8.20;44.39;101795.63;5056575;28;45589;-68
2022/04/04 02:38:48;;;;;;;;;12.50;7.00;;;;;8.21;44.12;101789.53;5056751;28;45823;-69
2022/04/04 02:41:14;;;;;;;;;5.50;5.50;;;;;8.14;44.33;101780.69;5056659;28;45465;-70
2022/04/04 02:43:40;;;;;;;;;10.75;9.00;;;;;8.23;44.53;101787.84;5056443;28;46080;-69
2022/04/04 02:46:06;;;;;;;;;11.25;8.50;;;;;8.18;44.00;101792.94;5055717;28;45481;-69
2022/04/04 02:48:32;;;;;;;;;8.25;8.25;;;;;8.14;44.22;101780.69;5056721;28;45322;-69
2022/04/04 02:50:57;;;;;;;;;8.75;6.75;;;;;8.09;44.04;101787.47;5040707;28;45588;-70
2022/04/04 02:53:23;;;;;;;;;7.00;7.00;;;;;7.96;45.01;101759.25;5035625;28;45612;-70
2022/04/04 02:58:35;;;;;;;;;9.75;8.00;;;;;8.04;44.74;101792.56;5036148;28;45407;-68
2022/04/04 03:01:00;;;;;;;;;7.25;7.00;;;;;8.05;45.01;101790.84;5036321;28;45409;-68
2022/04/04 03:03:26;;;;;;;;;6.00;6.00;;;;;8.03;44.47;101782.09;5037025;28;46185;-68
2022/04/04 03:05:51;;;;;;;;;6.50;6.50;;;;;8.05;44.16;101793.44;5055662;28;45543;-69
2022/04/04 03:08:17;;;;;;;;;8.75;7.25;;;;;8.04;44.26;101776.00;5055947;28;45258;-68
2022/04/04 03:10:42;;;;;;;;;6.75;6.75;;;;;7.96;44.39;101769.69;5059042;28;45262;-69
2022/04/04 03:13:08;;;;;;;;;10.00;7.25;;;;;7.88;44.17;101765.97;5059055;28;46184;-69
2022/04/04 03:15:35;;;;;;;;;7.25;7.00;;;;;7.97;44.45;101774.06;5058480;28;45504;-70
2022/04/04 03:18:03;;;;;;;;;6.75;6.50;;;;;7.97;44.23;101769.75;5059549;28;45834;-69
2022/04/04 03:20:31;;;;;;;;;8.25;7.50;;;;;7.97;44.49;101767.16;5059066;28;45378;-69
2022/04/04 03:22:57;;;;;;;;;8.00;6.50;;;;;7.91;44.18;101761.72;5058930;28;46427;-69
2022/04/04 03:25:23;;;;;;;;;7.00;6.00;;;;;7.93;44.34;101761.78;5058997;28;45383;-69
2022/04/04 03:27:50;;;;;;;;;11.50;7.75;;;;;7.90;44.68;101756.47;5059233;28;45626;-69
2022/04/04 03:30:33;;;;;;;;;7.75;7.75;;;;;7.88;44.48;101752.91;5039709;28;45793;-69
2022/04/04 03:32:59;;;;;;;;;10.00;7.00;;;;;7.90;44.97;101759.97;5054620;28;46337;-69
2022/04/04 03:35:30;;;;;;;;;6.25;6.25;;;;;7.89;44.49;101765.13;5058513;28;45535;-69
2022/04/04 03:37:58;;;;;;;;;8.50;6.75;;;;;7.85;45.12;101757.25;5059267;28;45342;-70
2022/04/04 03:40:24;;;;;;;;;7.75;6.75;;;;;7.88;44.46;101755.53;5062296;28;45504;-69
2022/04/04 03:42:52;;;;;;;;;12.25;6.50;;;;;7.82;45.16;101744.09;5060829;28;46215;-69
2022/04/04 03:45:19;;;;;;;;;9.00;7.75;;;;;7.56;44.75;101701.59;5063277;28;45472;-70
2022/04/04 03:47:45;;;;;;;;;9.00;7.00;;;;;7.80;44.69;101737.06;5046563;28;45941;-69
2022/04/04 03:50:15;;;;;;;;;8.00;8.00;;;;;7.79;44.93;101743.13;5042136;28;45469;-70
2022/04/04 03:52:51;;;;;;;;;8.25;7.50;;;;;7.79;45.26;101741.41;5040385;28;45425;-70
2022/04/04 03:55:19;;;;;;;;;7.50;6.75;;;;;7.79;45.22;101738.78;5038009;28;45482;-69
2022/04/04 03:57:45;;;;;;;;;9.00;8.75;;;;;7.76;45.03;101737.78;5050451;28;45294;-69
2022/04/04 04:00:11;;;;;;;;;10.25;8.00;;;;;7.75;45.27;101734.31;5059199;28;45404;-70
2022/04/04 04:02:37;;;;;;;;;9.75;7.50;;;;;7.72;45.33;101735.97;5059956;28;46061;-70
2022/04/04 04:05:04;;;;;;;;;10.50;9.75;;;;;7.67;44.97;101725.38;5059081;28;45386;-69
2022/04/04 04:07:30;;;;;;;;;10.50;9.50;;;;;7.73;44.90;101729.88;5058346;28;45520;-69
2022/04/04 04:09:56;;;;;;;;;11.25;8.75;;;;;7.61;44.76;101710.44;5060177;28;45450;-70
2022/04/04 04:12:22;;;;;;;;;8.00;7.50;;;;;7.72;45.22;101734.22;5050987;28;45552;-69
2022/04/04 04:14:51;;;;;;;;;11.00;10.00;;;;;7.52;44.82;101699.75;5044974;28;45648;-69
2022/04/04 04:17:19;;;;;;;;;12.75;9.25;;;;;7.61;45.53;101709.56;5051138;28;45264;-71
2022/04/04 04:22:34;;;;;;;;;10.25;10.00;;;;;7.48;45.20;101689.19;5047868;28;45940;-69
2022/04/04 04:25:03;;;;;;;;;10.25;10.00;;;;;7.15;44.94;101625.66;5058638;28;45572;-69
2022/04/04 04:27:28;;;;;;;;;13.75;10.75;;;;;7.68;45.00;101715.84;5039917;28;45376;-70
2022/04/04 04:29:54;;;;;;;;;15.75;11.00;;;;;7.23;45.44;101645.00;5037648;28;45538;-69
2022/04/04 04:32:24;;;;;;;;;14.00;11.50;;;;;7.61;44.98;101714.75;5037348;28;46065;-69
2022/04/04 04:34:50;;;;;;;;;12.00;11.25;;;;;7.58;45.04;101712.06;5056720;28;45368;-69
2022/04/04 04:37:21;;;;;;;;;13.75;11.00;;;;;7.49;46.04;101701.38;5038965;28;45656;-69
2022/04/04 04:39:47;;;;;;;;;15.00;11.00;;;;;7.48;46.03;101702.22;5037487;28;45528;-69
2022/04/04 04:42:13;;;;;;;;;15.25;14.50;;;;;7.50;45.47;101710.94;5054438;28;46097;-69
2022/04/04 04:44:39;;;;;;;;;14.00;12.25;;;;;7.41;45.94;101698.53;5057781;28;45436;-69
2022/04/04 04:47:05;;;;;;;;;14.75;12.25;;;;;7.28;46.51;101680.75;5057558;28;45259;-69
2022/04/04 04:49:32;;;;;;;;;17.00;14.50;;;;;7.27;45.79;101692.91;5057712;28;45692;-69
2022/04/04 04:51:57;;;;;;;;;16.75;14.25;;;;;7.31;46.21;101706.88;5057283;28;45337;-70
2022/04/04 04:54:23;;;;;;;;;14.25;13.00;;;;;7.32;46.24;101701.75;5053531;28;45435;-70
2022/04/04 04:56:48;;;;;;;;;14.50;14.50;;;;;7.34;46.71;101704.41;5037305;28;45449;-69
2022/04/04 04:59:14;;;;;;;;;13.50;12.00;;;;;7.33;46.33;101702.63;5037758;28;45301;-70
2022/04/04 05:01:44;;;;;;;;;11.00;10.00;;;;;7.31;46.51;101707.81;5052591;28;47685;-69
2022/04/04 05:04:10;;;;;;;;;19.00;15.00;;;;;7.17;46.96;101694.34;5037582;28;45272;-69
2022/04/04 05:06:36;;;;;;;;;17.00;15.00;;;;;7.15;46.61;101696.00;5035715;28;45406;-69
2022/04/04 05:09:02;;;;;;;;;16.50;14.50;;;;;7.17;46.80;101704.75;5039230;28;45889;-69
2022/04/04 05:11:28;;;;;;;;;16.00;14.25;;;;;7.14;46.40;101699.47;5057076;28;45958;-69
2022/04/04 05:13:53;;;;;;;;;13.75;13.75;;;;;7.09;46.44;101692.31;5057064;28;45463;-70
2022/04/04 05:16:20;;;;;;;;;19.75;16.75;;;;;6.99;47.12;101681.59;5057456;28;45436;-70
2022/04/04 05:18:46;;;;;;;;;15.00;15.00;;;;;7.12;46.74;101708.03;5057670;28;45374;-69
2022/04/04 05:21:18;;;;;;;;;16.50;14.75;;;;;6.89;46.69;101674.34;5048481;28;45954;-69
2022/04/04 05:23:47;;;;;;;;;14.25;14.25;;;;;7.04;46.86;101707.81;5037715;28;45362;-71
2022/04/04 05:26:13;;;;;;;;;15.00;12.50;;;;;7.01;46.63;101699.91;5037464;28;45527;-69
2022/04/04 05:28:39;;;;;;;;;15.00;15.00;;;;;6.94;47.24;101688.41;5037628;28;45499;-70
2022/04/04 05:31:05;;;;;;;;;16.25;13.50;;;;;7.01;46.92;101702.50;5037194;28;45331;-70
2022/04/04 05:33:31;;;;;;;;;16.25;13.25;;;;;6.92;46.53;101673.56;5035144;28;45423;-69
2022/04/04 05:35:57;;;;;;;;;17.00;14.25;;;;;7.04;46.72;101696.50;5046122;28;45567;-70
2022/04/04 05:38:22;;;;;;;;;16.50;13.25;;;;;7.07;46.76;101702.72;5036982;28;45391;-70
2022/04/04 05:40:48;;;;;;;;;13.75;12.25;;;;;6.98;46.83;101686.78;5037489;28;45376;-70
2022/04/04 05:43:14;;;;;;;;;14.25;11.75;;;;;7.03;46.72;101687.81;5036871;28;45546;-69
2022/04/04 05:45:40;;;;;;;;;14.75;14.25;;;;;7.11;46.72;101701.06;5037404;28;45461;-69
2022/04/04 05:48:07;;;;;;;;;14.75;14.00;;;;;7.11;46.91;101690.66;5051211;28;45462;-69
2022/04/04 05:50:33;;;;;;;;;12.00;11.75;;;;;7.03;47.14;101677.41;5056548;28;46149;-69
2022/04/04 05:52:59;;;;;;;;;13.00;13.00;;;;;7.18;47.10;101701.31;5043632;28;45404;-70
2022/04/04 05:55:25;;;;;;;;;18.50;14.00;;;;;7.14;46.96;101699.47;5054163;28;45272;-70
2022/04/04 05:57:51;;;;;;;;;18.50;15.75;;;;;7.21;46.82;101696.22;5039439;28;45300;-69
2022/04/04 06:00:17;;;;;;;;;15.50;14.00;;;;;7.22;46.56;101695.34;5039416;28;45396;-69
2022/04/04 06:02:51;;;;;;;;;18.00;17.00;;;;;7.16;46.27;101679.53;5038161;28;45545;-69
2022/04/04 06:05:17;;;;;;;;;16.25;15.50;;;;;7.36;46.64;101689.69;5041024;28;45916;-69
2022/04/04 06:07:43;;;;;;;;;16.25;16.00;;;;;7.01;46.50;101614.81;5041588;28;45446;-69
2022/04/04 06:10:11;;;;;;;;;15.25;12.50;;;;;7.54;46.17;101697.16;5061923;28;45386;-71
2022/04/04 06:12:38;;;;;;;;;15.50;14.50;;;;;7.57;46.54;101685.13;5062479;28;45366;-70
2022/04/04 06:15:04;;;;;;;;;16.50;15.25;;;;;7.42;45.99;101640.34;5059362;28;45355;-70
2022/04/04 06:17:29;;;;;;;;;19.00;17.00;;;;;7.71;45.69;101690.75;5059333;28;46076;-71
2022/04/04 06:19:55;;;;;;;;;16.00;14.25;;;;;7.72;45.30;101678.59;5054927;28;46006;-70
2022/04/04 06:22:33;;;;;;;;;20.50;15.00;;;;;7.79;45.83;101681.41;5041419;28;45759;-70
2022/04/04 06:24:59;;;;;;;;;14.75;13.25;;;;;7.77;45.22;101671.78;5056593;28;45496;-71
2022/04/04 06:27:24;;;;;;;;;15.75;13.50;;;;;7.88;45.73;101679.88;5056941;28;45531;-70
2022/04/04 06:29:50;;;;;;;;;13.75;13.00;;;;;7.94;45.01;101687.91;5039780;28;46253;-69
2022/04/04 06:32:15;;;;;;;;;14.75;14.50;;;;;7.93;45.08;101671.38;5041068;28;45426;-69
2022/04/04 06:34:41;;;;;;;;;16.75;16.00;;;;;8.01;44.49;101671.56;5039961;28;45485;-70
2022/04/04 06:37:23;;;;;;;;;16.50;15.25;;;;;8.12;44.43;101677.09;5049495;28;45453;-70
2022/04/04 06:40:02;;;;;;;;;16.00;15.25;;;;;7.98;44.26;101638.47;5036024;28;47710;-70
2022/04/04 06:42:28;;;;;;;;;14.00;13.50;;;;;8.25;44.36;101679.19;5053068;28;45441;-69
2022/04/04 06:44:57;;;;;;;;;16.75;14.50;;;;;8.15;44.18;101654.56;5055192;28;45456;-70
2022/04/04 06:47:26;;;;;;;;;18.00;17.25;;;;;8.24;44.36;101654.81;5041332;28;45418;-70
2022/04/04 06:49:52;;;;;;;;;16.75;16.25;;;;;8.39;43.55;101662.16;5040091;28;45479;-70
2022/04/04 06:52:19;;;;;;;;;22.50;17.00;;;;;8.50;43.92;101670.31;5039400;28;45453;-69
2022/04/04 06:54:49;;;;;;;;;18.25;16.00;;;;;8.54;43.84;101668.63;5049938;28;45612;-69
2022/04/04 06:57:18;;;;;;;;;16.25;14.75;;;;;8.55;43.30;101658.25;5048391;28;45542;-69
2022/04/04 06:59:43;;;;;;;;;17.25;14.75;;;;;8.65;42.94;101665.44;5039663;28;45774;-70
2022/04/04 07:02:09;;;;;;;;;14.50;14.00;;;;;8.71;42.67;101662.13;5050326;28;45436;-70
2022/04/04 07:04:37;;;;;;;;;15.50;14.75;;;;;8.67;42.30;101653.31;5039766;28;45535;-71
2022/04/04 07:07:04;;;;;;;;;18.25;16.75;;;;;8.59;42.35;101639.19;5045738;28;45392;-70
2022/04/04 07:09:30;;;;;;;;;20.25;17.00;;;;;8.75;42.40;101661.31;5057392;28;45922;-70
2022/04/04 07:11:59;;;;;;;;;21.25;18.75;;;;;8.80;42.42;101664.06;5058932;28;45411;-71
2022/04/04 07:14:25;;;;;;;;;17.75;16.00;;;;;8.56;42.38;101599.06;5058949;28;45207;-70
2022/04/04 07:16:53;;;;;;;;;14.50;14.00;;;;;8.90;42.13;101647.78;5059445;28;45438;-71
2022/04/04 07:19:22;;;;;;;;;14.25;14.00;;;;;8.97;41.76;101660.13;5059460;28;45611;-70
2022/04/04 07:21:48;;;;;;;;;16.25;14.75;;;;;9.02;41.19;101655.00;5059413;28;45357;-70
2022/04/04 07:24:17;;;;;;;;;16.25;16.00;;;;;8.68;41.23;101570.63;5053162;28;45572;-71
2022/04/04 07:26:43;;;;;;;;;13.25;11.75;;;;;9.15;40.53;101643.97;5059380;28;45453;-70
2022/04/04 07:29:08;;;;;;;;;15.50;13.00;;;;;8.73;39.78;101568.09;5048896;28;45627;-70
2022/04/04 07:31:36;;;;;;;;;9.50;7.50;;;;;8.77;39.55;101555.16;5038303;28;45406;-71
2022/04/04 07:34:02;;;;;;;;;8.00;6.50;;;;;9.25;38.80;101625.00;5053715;28;45374;-69
2022/04/04 07:36:29;;;;;;;;;7.75;5.50;;;;;9.02;38.14;101587.06;5050785;28;45341;-71
2022/04/04 07:38:55;;;;;;;;;5.75;4.00;;;;;9.30;38.20;101628.63;5045528;28;46016;-69
2022/04/04 07:41:21;;;;;;;;;4.75;4.75;;;;;9.30;37.89;101618.19;5052649;28;45730;-70
2022/04/04 07:43:48;;;;;;;;;6.25;4.75;;;;;8.87;38.35;101528.41;5058057;27;45539;-70
2022/04/04 07:46:13;;;;;;;;;9.00;7.50;;;;;9.43;37.63;101611.47;5057001;28;45535;-70
2022/04/04 07:48:42;;;;;;;;;10.00;5.50;;;;;9.42;37.61;101608.81;5058597;28;46150;-69
2022/04/04 07:51:07;;;;;;;;;4.00;4.00;;;;;9.46;37.92;101614.13;5057225;28;45434;-71
2022/04/04 07:53:34;;;;;;;;;3.00;3.00;;;;;8.97;36.82;101531.19;5058361;28;45329;-70
2022/04/04 07:55:59;;;;;;;;;5.50;2.00;;;;;9.15;37.34;101543.78;5056676;28;45580;-70
2022/04/04 07:58:25;;;;;;;;;4.75;4.25;;;;;9.59;37.10;101606.56;5058259;28;45402;-70
2022/04/04 08:00:54;;;;;;;;;4.00;4.00;;;;;9.52;37.33;101590.72;5057255;28;45322;-70
2022/04/04 08:03:22;;;;;;;;;5.75;5.75;;;;;9.40;36.70;101555.63;5058738;28;45306;-70
2022/04/04 08:05:47;;;;;;;;;6.50;4.50;;;;;9.71;36.68;101596.34;5058638;28;45354;-69
2022/04/04 08:08:14;;;;;;;;;4.50;4.00;;;;;9.50;36.32;101565.41;5058063;28;46606;-70
2022/04/04 08:10:41;;;;;;;;;6.00;5.75;;;;;9.50;36.00;101557.56;5058407;28;45272;-70
2022/04/04 08:13:07;;;;;;;;;6.50;6.50;;;;;9.34;36.48;101538.94;5042818;28;45244;-70
2022/04/04 08:15:33;;;;;;;;;6.00;5.50;;;;;9.72;36.36;101591.09;5038392;28;45725;-69
2022/04/04 08:17:59;;;;;;;;;7.00;6.50;;;;;9.68;36.51;101573.63;5038000;28;45460;-71
2022/04/04 08:20:25;;;;;;;;;6.00;4.50;;;;;9.87;36.42;101594.88;5037925;28;45366;-73
2022/04/04 08:22:51;;;;;;;;;6.25;6.25;;;;;9.91;36.54;101599.31;5038434;28;45565;-71
2022/04/04 08:25:18;;;;;;;;;6.50;4.75;;;;;9.69;36.72;101557.06;5038293;28;45477;-71
2022/04/04 08:27:44;;;;;;;;;6.00;6.00;;;;;9.97;37.91;101588.97;5036660;28;45556;-70
2022/04/04 08:30:13;;;;;;;;;6.25;6.25;;;;;9.97;36.89;101579.38;5037940;28;45374;-72
2022/04/04 08:32:40;;;;;;;;;6.50;5.25;;;;;9.97;36.79;101568.03;5054703;28;45436;-71
2022/04/04 08:35:53;;;;;;;;;6.00;6.00;;;;;10.08;36.63;101574.31;5102046;27;45522;-71
2022/04/04 08:38:20;;;;;;;;;5.00;5.00;;;;;10.02;36.44;101555.91;5066191;28;45606;-71
2022/04/04 08:40:48;;;;;;;;;7.00;5.75;;;;;10.00;36.32;101541.03;5047851;28;45671;-70
2022/04/04 08:43:17;;;;;;;;;4.00;4.00;;;;;9.93;36.62;101535.69;5051567;28;45488;-72
2022/04/04 08:45:47;;;;;;;;;5.25;5.25;;;;;10.23;36.73;101570.19;5049326;28;47240;-70
2022/04/04 08:48:13;;;;;;;;;4.00;4.00;;;;;10.30;36.53;101561.66;5051263;28;45642;-72
2022/04/04 08:50:39;;;;;;;;;8.75;5.75;;;;;10.30;36.00;101566.88;5050662;28;45554;-69
2022/04/04 08:53:08;;;;;;;;;7.25;4.00;;;;;10.29;35.64;101565.09;5052204;28;45579;-72
2022/04/04 08:55:35;;;;;;;;;4.00;4.00;;;;;9.77;35.50;101479.59;5049151;28;46236;-71
2022/04/04 08:58:01;;;;;;;;;8.00;5.25;;;;;10.23;35.31;101564.97;5050332;28;45534;-70
2022/04/04 09:00:28;;;;;;;;;6.00;4.75;;;;;10.16;35.52;101540.44;5050505;28;45412;-71
2022/04/04 09:03:02;;;;;;;;;50.25;40.75;;;;;10.29;37.40;101538.94;5051505;28;45418;-70
2022/04/04 09:05:56;;;;;;;;;11.25;11.00;;;;;10.31;35.67;101525.00;5050760;28;45658;-70
2022/04/04 09:08:23;;;;;;;;;7.00;6.25;;;;;10.44;35.34;101546.13;5043105;28;45477;-71
2022/04/04 09:10:54;;;;;;;;;4.50;3.00;;;;;10.50;35.22;101541.88;5047108;28;45798;-72
2022/04/04 09:13:22;;;;;;;;;3.75;3.00;;;;;10.55;34.87;101539.31;5051181;28;45595;-69
2022/04/04 09:15:55;;;;;;;;;3.00;3.00;;;;;10.58;34.53;101537.66;5050972;28;45991;-72
2022/04/04 09:18:37;;;;;;;;;5.50;3.50;;;;;10.53;34.10;101515.72;5050153;28;45371;-72
2022/04/04 09:21:12;;;;;;;;;4.00;2.75;;;;;10.50;34.06;101518.31;5050355;28;45421;-71
2022/04/04 09:23:45;;;;;;;;;3.50;3.00;;;;;10.41;34.50;101481.50;5050346;28;45311;-71
2022/04/04 09:26:36;;;;;;;;;3.25;3.25;;;;;10.40;33.95;101461.41;5047139;28;46470;-70
2022/04/04 09:29:28;;;;;;;;;2.25;2.25;;;;;10.86;33.61;101527.53;5049004;28;45556;-72
2022/04/04 09:32:11;;;;;;;;;3.75;3.00;;;;;11.00;33.93;101515.50;5050673;28;45673;-70
2022/04/04 09:34:49;;;;;;;;;3.50;3.50;;;;;11.07;33.77;101508.59;5056213;28;45593;-70
2022/04/04 09:37:16;;;;;;;;;3.75;3.00;;;;;11.14;33.23;101507.81;5043664;28;45437;-71
2022/04/04 09:39:42;;;;;;;;;3.50;3.50;;;;;11.23;34.28;101501.78;5049226;28;45413;-70
2022/04/04 09:42:19;;;;;;;;;4.00;3.00;;;;;10.95;33.13;101427.19;5049294;28;45417;-71
2022/04/04 09:45:03;;;;;;;;;4.00;4.00;;;;;11.27;33.70;101456.41;5050112;28;45943;-72
2022/04/04 09:48:02;;;;;;;;;2.00;2.00;;;;;11.56;33.52;101492.53;5035387;28;45607;-72
2022/04/04 09:50:31;;;;;;;;;4.75;3.00;;;;;11.42;33.28;101450.41;5031916;28;45481;-71
2022/04/04 09:52:57;;;;;;;;;6.25;4.00;;;;;11.70;32.25;101482.16;5035833;28;45331;-71
2022/04/04 09:55:35;;;;;;;;;4.00;3.00;;;;;11.79;32.54;101477.00;5037878;28;46619;-70
2022/04/04 09:58:06;;;;;;;;;2.50;2.50;;;;;11.85;31.59;101466.56;5035583;28;45584;-71
2022/04/04 10:00:35;;;;;;;;;4.50;4.50;;;;;11.95;31.36;101473.66;5037498;28;45507;-72
2022/04/04 10:03:02;;;;;;;;;2.00;2.00;;;;;11.56;31.74;101416.47;5036920;28;45687;-70
2022/04/04 10:05:28;;;;;;;;;7.25;4.00;;;;;11.97;33.83;101460.56;5036118;28;46440;-71
2022/04/04 10:07:56;;;;;;;;;2.00;2.00;;;;;12.21;31.98;101473.88;5035412;28;46321;-71
2022/04/04 10:10:26;;;;;;;;;4.00;4.00;;;;;12.18;34.12;101425.72;5035682;28;45529;-70
2022/04/04 10:12:53;;;;;;;;;3.75;1.50;;;;;12.45;33.34;101428.47;5035304;28;45444;-70
2022/04/04 10:15:21;;;;;;;;;4.00;2.75;;;;;12.65;32.94;101425.97;5037299;28;45518;-71
2022/04/04 10:17:48;;;;;;;;;2.00;2.00;;;;;12.68;32.13;101397.06;5036283;28;46317;-71
2022/04/04 10:20:17;;;;;;;;;3.00;3.00;;;;;12.97;30.34;101430.44;5037169;28;45486;-71
2022/04/04 10:22:46;;;;;;;;;4.00;2.00;;;;;13.26;34.17;101455.94;5035817;28;45583;-71
2022/04/04 10:25:14;;;;;;;;;2.00;2.00;;;;;13.49;31.47;101459.53;5035702;28;45410;-70
2022/04/04 10:27:44;;;;;;;;;2.25;2.00;;;;;13.23;30.24;101382.31;5036886;28;45476;-72
2022/04/04 10:30:10;;;;;;;;;3.75;3.00;;;;;13.41;29.83;101384.13;5036250;28;45449;-72
2022/04/04 10:32:50;;;;;;;;;3.25;3.00;;;;;13.70;29.75;101403.41;5044593;28;45405;-72
2022/04/04 10:35:23;;;;;;;;;3.00;3.00;;;;;14.02;29.33;101434.09;5031069;28;46115;-72
2022/04/04 10:37:50;;;;;;;;;3.00;3.00;;;;;13.91;29.72;101389.34;5037326;28;45831;-71
2022/04/04 10:40:26;;;;;;;;;2.75;2.00;;;;;14.25;29.44;101420.91;5039656;28;45544;-72
2022/04/04 10:43:09;;;;;;;;;2.75;2.75;;;;;14.33;29.48;101423.50;5042220;28;45827;-71
2022/04/04 10:45:57;;;;;;;;;2.00;2.00;;;;;14.21;27.34;101382.25;5042774;28;45828;-72
2022/04/04 10:48:30;;;;;;;;;3.25;2.00;;;;;14.53;28.96;101411.16;5042556;28;45539;-73
2022/04/04 10:51:15;;;;;;;;;2.75;2.75;;;;;14.43;29.49;101339.16;5042663;28;45382;-72
2022/04/04 10:54:08;;;;;;;;;1.67;1.67;;;;;14.84;27.24;101385.56;5043159;28;45532;-72
2022/04/04 10:56:42;;;;;;;;;2.00;1.00;;;;;14.79;27.04;101368.91;5056371;28;45513;-72
2022/04/04 10:59:20;;;;;;;;;9.00;9.00;;;;;14.75;28.35;101363.63;5042134;28;45583;-72
2022/04/04 11:01:54;;;;;;;;;38.50;33.00;;;;;14.67;29.24;101323.28;5042021;28;45488;-72
2022/04/04 11:04:36;;;;;;;;;14.75;14.00;;;;;14.62;28.54;101307.47;5043207;28;45384;-73
2022/04/04 11:10:07;;;;;;;;;3.00;3.00;;;;;14.85;26.93;101320.50;5043507;28;45717;-71
2022/04/04 11:13:02;;;;;;;;;1.00;1.00;;;;;15.16;27.61;101384.50;5058361;28;45532;-73
2022/04/04 11:15:53;;;;;;;;;3.33;3.00;;;;;15.21;27.49;101377.44;5037787;28;45527;-73
2022/04/04 11:18:19;;;;;;;;;3.00;2.00;;;;;14.63;27.39;101256.50;5037881;28;45482;-73
2022/04/04 11:20:58;;;;;;;;;2.00;2.00;;;;;15.22;26.68;101354.56;5039512;28;45540;-72
2022/04/04 11:23:34;;;;;;;;;4.00;2.00;;;;;14.61;26.98;101243.31;5037513;28;45461;-72
2022/04/04 11:26:01;;;;;;;;;4.00;3.33;;;;;14.96;26.49;101321.31;5038087;28;45828;-71
2022/04/04 11:28:32;;;;;;;;;2.33;2.33;;;;;14.57;27.17;101253.91;5038679;28;45561;-71
2022/04/04 11:31:10;;;;;;;;;2.00;2.00;;;;;14.48;27.58;101244.25;5036829;28;46143;-72
2022/04/04 11:33:48;;;;;;;;;4.67;4.00;;;;;15.08;26.48;101336.19;5036787;28;45363;-71
2022/04/04 11:36:22;;;;;;;;;3.00;3.00;;;;;14.99;25.87;101326.56;5036522;28;45323;-71
2022/04/04 11:38:50;;;;;;;;;3.50;2.00;;;;;14.86;25.92;101314.34;5039287;28;45485;-71
2022/04/04 11:41:17;;;;;;;;;3.75;2.75;;;;;14.91;26.01;101323.13;5040056;28;46299;-71